createdAt,value
2018-12-20T00:02:01.504Z,100.00
2018-12-20T00:04:32.197Z,100.00
2018-12-20T00:07:03.481Z,100.00
2018-12-20T00:09:33.653Z,100.00
2018-12-20T00:12:03.755Z,100.00
2018-12-20T00:14:34.176Z,100.00
2018-12-20T00:17:09.282Z,100.00
2018-12-20T00:19:39.354Z,100.00
2018-12-20T00:22:10.814Z,100.00
2018-12-20T00:24:41.078Z,100.00
2018-12-20T00:30:47.058Z,100.00
2018-12-20T00:33:17.748Z,100.00
2018-12-20T00:35:48.033Z,100.00
2018-12-20T00:38:18.552Z,100.00
2018-12-20T00:40:48.629Z,100.00
2018-12-20T00:43:19.043Z,100.00
2018-12-20T00:45:49.312Z,100.00
2018-12-20T00:48:19.504Z,100.00
2018-12-20T00:50:49.795Z,100.00
2018-12-20T00:53:19.638Z,100.00
2018-12-20T00:55:49.646Z,100.00
2018-12-20T00:58:19.509Z,100.00
2018-12-20T01:00:49.757Z,100.00
2018-12-20T01:03:19.798Z,100.00
2018-12-20T01:05:49.805Z,100.00
2018-12-20T01:08:19.824Z,100.00
2018-12-20T01:10:49.717Z,100.00
2018-12-20T01:13:19.786Z,100.00
2018-12-20T01:15:49.829Z,100.00
2018-12-20T01:18:19.610Z,100.00
2018-12-20T01:20:49.713Z,100.00
2018-12-20T01:23:20.071Z,100.00
2018-12-20T01:25:50.267Z,100.00
2018-12-20T01:28:20.288Z,100.00
2018-12-20T01:30:50.734Z,100.00
2018-12-20T01:33:20.757Z,100.00
2018-12-20T01:35:50.914Z,100.00
2018-12-20T01:38:21.350Z,100.00
2018-12-20T01:40:51.829Z,100.00
2018-12-20T01:43:22.708Z,100.00
2018-12-20T01:45:52.572Z,100.00
2018-12-20T01:48:22.580Z,100.00
2018-12-20T01:50:52.600Z,100.00
2018-12-20T01:53:22.365Z,100.00
2018-12-20T01:55:52.278Z,100.00
2018-12-20T01:58:22.086Z,100.00
2018-12-20T02:00:52.530Z,100.00
2018-12-20T02:03:22.599Z,100.00
2018-12-20T02:05:53.187Z,100.00
2018-12-20T02:08:23.625Z,100.00
2018-12-20T02:10:53.838Z,100.00
2018-12-20T02:13:23.999Z,100.00
2018-12-20T02:15:54.045Z,100.00
2018-12-20T02:18:23.814Z,100.00
2018-12-20T02:20:54.797Z,100.00
2018-12-20T02:23:25.190Z,100.00
2018-12-20T02:25:55.258Z,100.00
2018-12-20T02:28:25.601Z,100.00
2018-12-20T02:30:56.019Z,100.00
2018-12-20T02:33:26.044Z,100.00
2018-12-20T02:35:56.349Z,100.00
2018-12-20T02:38:26.752Z,100.00
2018-12-20T02:40:56.803Z,100.00
2018-12-20T02:43:26.847Z,100.00
2018-12-20T02:45:56.689Z,100.00
2018-12-20T02:48:26.410Z,100.00
2018-12-20T02:50:56.593Z,100.00
2018-12-20T02:53:26.655Z,100.00
2018-12-20T02:55:56.704Z,100.00
2018-12-20T02:58:26.771Z,100.00
2018-12-20T03:00:57.128Z,100.00
2018-12-20T03:03:27.281Z,100.00
2018-12-20T03:05:57.995Z,100.00
2018-12-20T03:08:28.152Z,100.00
2018-12-20T03:10:58.369Z,100.00
2018-12-20T03:13:29.709Z,100.00
2018-12-20T03:16:00.237Z,100.00
2018-12-20T03:18:30.400Z,100.00
2018-12-20T03:21:00.895Z,100.00
2018-12-20T03:23:30.905Z,100.00
2018-12-20T03:26:01.499Z,100.00
2018-12-20T03:28:31.515Z,100.00
2018-12-20T03:31:01.754Z,100.00
2018-12-20T03:33:31.877Z,100.00
2018-12-20T03:36:02.131Z,100.00
2018-12-20T03:38:32.477Z,100.00
2018-12-20T03:41:03.028Z,100.00
2018-12-20T03:43:33.358Z,100.00
2018-12-20T03:46:03.723Z,100.00
2018-12-20T03:48:35.401Z,100.00
2018-12-20T03:51:05.784Z,100.00
2018-12-20T03:53:35.973Z,100.00
2018-12-20T03:56:06.124Z,100.00
2018-12-20T03:58:36.113Z,100.00
2018-12-20T04:01:06.210Z,100.00
2018-12-20T04:03:36.241Z,100.00
2018-12-20T04:06:06.236Z,100.00
2018-12-20T04:08:36.924Z,100.00
2018-12-20T04:11:07.081Z,100.00
2018-12-20T04:13:37.255Z,100.00
2018-12-20T04:16:07.922Z,100.00
2018-12-20T04:18:38.107Z,100.00
2018-12-20T04:21:07.886Z,100.00
2018-12-20T04:23:38.139Z,100.00
2018-12-20T04:26:08.322Z,100.00
2018-12-20T04:28:38.633Z,100.00
2018-12-20T04:31:09.836Z,100.00
2018-12-20T04:33:39.786Z,100.00
2018-12-20T04:36:09.579Z,100.00
2018-12-20T04:38:39.406Z,100.00
2018-12-20T04:41:09.477Z,100.00
2018-12-20T04:43:39.645Z,100.00
2018-12-20T04:46:09.726Z,100.00
2018-12-20T04:48:40.422Z,100.00
2018-12-20T04:51:10.522Z,100.00
2018-12-20T04:53:40.719Z,100.00
2018-12-20T04:56:11.053Z,100.00
2018-12-20T04:58:41.190Z,100.00
2018-12-20T05:01:11.392Z,100.00
2018-12-20T05:03:42.370Z,100.00
2018-12-20T05:06:12.470Z,100.00
2018-12-20T05:08:43.053Z,100.00
2018-12-20T05:11:13.163Z,100.00
2018-12-20T05:13:43.219Z,100.00
2018-12-20T05:16:13.702Z,100.00
2018-12-20T05:18:43.783Z,100.00
2018-12-20T05:21:14.483Z,100.00
2018-12-20T05:23:44.811Z,100.00
2018-12-20T05:26:15.003Z,100.00
2018-12-20T05:28:45.090Z,100.00
2018-12-20T05:31:15.159Z,100.00
2018-12-20T05:33:45.199Z,100.00
2018-12-20T05:36:15.339Z,100.00
2018-12-20T05:38:45.605Z,100.00
2018-12-20T05:41:16.390Z,100.00
2018-12-20T05:43:46.337Z,100.00
2018-12-20T05:46:16.397Z,100.00
2018-12-20T05:48:46.882Z,100.00
2018-12-20T05:51:16.972Z,100.00
2018-12-20T05:53:47.157Z,100.00
2018-12-20T05:56:17.241Z,100.00
2018-12-20T05:58:47.297Z,100.00
2018-12-20T06:01:17.342Z,100.00
2018-12-20T06:03:47.352Z,100.00
2018-12-20T06:06:21.807Z,100.00
2018-12-20T06:08:51.840Z,100.00
2018-12-20T06:11:21.612Z,100.00
2018-12-20T06:13:51.638Z,100.00
2018-12-20T06:16:21.475Z,100.00
2018-12-20T06:18:51.714Z,100.00
2018-12-20T06:21:22.605Z,100.00
2018-12-20T06:23:52.393Z,100.00
2018-12-20T06:26:22.197Z,100.00
2018-12-20T06:28:52.009Z,100.00
2018-12-20T06:31:22.617Z,100.00
2018-12-20T06:33:52.415Z,100.00
2018-12-20T06:36:22.598Z,100.00
2018-12-20T06:38:52.496Z,100.00
2018-12-20T06:41:22.335Z,100.00
2018-12-20T06:43:52.058Z,100.00
2018-12-20T06:46:21.904Z,100.00
2018-12-20T06:48:51.689Z,100.00
2018-12-20T06:51:21.824Z,100.00
2018-12-20T06:53:51.658Z,100.00
2018-12-20T06:56:21.428Z,100.00
2018-12-20T06:58:52.013Z,100.00
2018-12-20T07:01:21.898Z,100.00
2018-12-20T07:03:52.166Z,100.00
2018-12-20T07:06:22.004Z,100.00
2018-12-20T07:08:52.120Z,100.00
2018-12-20T07:11:21.936Z,100.00
2018-12-20T07:13:51.659Z,100.00
2018-12-20T07:16:29.116Z,100.00
2018-12-20T07:18:53.449Z,100.00
2018-12-20T07:21:23.296Z,100.00
2018-12-20T07:23:53.076Z,100.00
2018-12-20T07:26:22.924Z,100.00
2018-12-20T07:28:53.537Z,100.00
2018-12-20T07:31:23.706Z,100.00
2018-12-20T07:33:53.456Z,100.00
2018-12-20T07:36:23.417Z,100.00
2018-12-20T07:38:53.518Z,100.00
2018-12-20T07:41:23.265Z,100.00
2018-12-20T07:43:52.961Z,100.00
2018-12-20T07:46:22.796Z,100.00
2018-12-20T07:48:52.520Z,100.00
2018-12-20T07:51:22.259Z,100.00
2018-12-20T07:53:51.994Z,100.00
2018-12-20T07:56:21.748Z,100.00
2018-12-20T07:58:53.236Z,100.00
2018-12-20T08:01:22.965Z,100.00
2018-12-20T08:03:52.739Z,100.00
2018-12-20T08:06:22.544Z,100.00
2018-12-20T08:08:52.300Z,100.00
2018-12-20T08:11:22.381Z,100.00
2018-12-20T08:13:52.136Z,100.00
2018-12-20T08:16:22.152Z,100.00
2018-12-20T08:18:51.921Z,100.00
2018-12-20T08:21:21.709Z,100.00
2018-12-20T08:23:51.482Z,100.00
2018-12-20T08:26:21.206Z,100.00
2018-12-20T08:28:50.969Z,100.00
2018-12-20T08:31:20.735Z,99.85
2018-12-20T08:33:50.439Z,99.10
2018-12-20T08:36:20.684Z,99.47
2018-12-20T08:38:50.399Z,98.85
2018-12-20T08:41:20.168Z,98.74
2018-12-20T08:43:49.893Z,98.07
2018-12-20T08:46:20.105Z,97.71
2018-12-20T08:48:49.896Z,97.58
2018-12-20T08:51:19.647Z,97.21
2018-12-20T08:53:49.405Z,97.28
2018-12-20T08:56:19.430Z,96.94
2018-12-20T08:58:49.170Z,97.09
2018-12-20T09:01:18.894Z,97.22
2018-12-20T09:03:48.633Z,96.80
2018-12-20T09:06:18.414Z,96.57
2018-12-20T09:08:48.152Z,96.13
2018-12-20T09:11:17.919Z,95.54
2018-12-20T09:13:47.691Z,95.09
2018-12-20T09:16:17.426Z,95.61
2018-12-20T09:18:47.943Z,95.24
2018-12-20T09:21:17.676Z,94.87
2018-12-20T09:23:47.420Z,94.57
2018-12-20T09:26:17.209Z,95.02
2018-12-20T09:28:46.981Z,94.60
2018-12-20T09:31:16.769Z,93.98
2018-12-20T09:33:46.524Z,94.90
2018-12-20T09:36:16.618Z,93.79
2018-12-20T09:38:46.406Z,94.03
2018-12-20T09:41:16.508Z,94.03
2018-12-20T09:43:46.774Z,93.91
2018-12-20T09:46:16.552Z,94.33
2018-12-20T09:48:46.455Z,92.71
2018-12-20T09:51:16.548Z,93.21
2018-12-20T09:53:46.692Z,92.81
2018-12-20T09:56:16.668Z,92.56
2018-12-20T09:58:46.361Z,92.46
2018-12-20T10:01:16.144Z,91.83
2018-12-20T10:03:45.873Z,90.43
2018-12-20T10:06:15.848Z,90.00
2018-12-20T10:08:46.024Z,90.67
2018-12-20T10:11:15.739Z,88.66
2018-12-20T10:13:45.495Z,87.78
2018-12-20T10:16:15.593Z,88.27
2018-12-20T10:18:45.696Z,88.93
2018-12-20T10:21:15.835Z,89.54
2018-12-20T10:23:45.656Z,89.21
2018-12-20T10:26:15.706Z,89.68
2018-12-20T10:28:45.458Z,89.89
2018-12-20T10:31:15.211Z,89.99
2018-12-20T10:33:44.971Z,90.29
2018-12-20T10:36:14.751Z,90.21
2018-12-20T10:38:44.990Z,89.20
2018-12-20T10:41:14.793Z,89.70
2018-12-20T10:43:45.137Z,88.45
2018-12-20T10:46:15.178Z,89.51
2018-12-20T10:48:45.003Z,89.53
2018-12-20T10:51:15.121Z,90.10
2018-12-20T10:53:45.710Z,89.91
2018-12-20T10:56:15.985Z,89.55
2018-12-20T10:58:46.654Z,89.46
2018-12-20T11:01:21.741Z,87.66
2018-12-20T11:03:55.557Z,88.55
2018-12-20T11:06:30.345Z,88.76
2018-12-20T11:09:06.231Z,88.52
2018-12-20T11:11:41.579Z,89.15
2018-12-20T11:14:11.719Z,89.47
2018-12-20T11:16:41.486Z,89.45
2018-12-20T11:19:11.298Z,88.55
2018-12-20T11:21:41.069Z,87.53
2018-12-20T11:24:11.030Z,86.51
2018-12-20T11:26:40.815Z,85.91
2018-12-20T11:29:10.577Z,85.42
2018-12-20T11:31:40.701Z,85.01
2018-12-20T11:34:10.845Z,83.82
2018-12-20T11:36:40.646Z,82.88
2018-12-20T11:39:10.413Z,83.28
2018-12-20T11:41:40.181Z,83.20
2018-12-20T11:44:09.993Z,83.52
2018-12-20T11:46:39.749Z,82.88
2018-12-20T11:49:09.499Z,82.51
2018-12-20T11:51:39.934Z,82.63
2018-12-20T11:54:09.772Z,82.93
2018-12-20T11:56:39.587Z,83.16
2018-12-20T11:59:09.377Z,82.49
2018-12-20T12:01:39.123Z,82.98
2018-12-20T12:04:09.810Z,82.34
2018-12-20T12:06:39.900Z,82.00
2018-12-20T12:09:10.401Z,82.38
2018-12-20T12:11:40.145Z,82.06
2018-12-20T12:14:10.146Z,81.86
2018-12-20T12:16:39.957Z,82.80
2018-12-20T12:19:10.693Z,83.39
2018-12-20T12:21:40.440Z,83.27
2018-12-20T12:24:10.181Z,83.46
2018-12-20T12:26:39.897Z,83.39
2018-12-20T12:29:09.681Z,83.79
2018-12-20T12:31:39.913Z,83.77
2018-12-20T12:34:09.784Z,82.84
2018-12-20T12:36:39.989Z,82.64
2018-12-20T12:39:10.050Z,82.18
2018-12-20T12:41:40.170Z,81.97
2018-12-20T12:44:10.206Z,82.26
2018-12-20T12:46:39.963Z,82.58
2018-12-20T12:49:09.767Z,82.67
2018-12-20T12:51:40.073Z,83.05
2018-12-20T12:54:09.917Z,83.17
2018-12-20T12:56:39.700Z,82.98
2018-12-20T12:59:09.526Z,82.42
2018-12-20T13:01:39.249Z,82.61
2018-12-20T13:04:09.633Z,83.68
2018-12-20T13:06:39.684Z,83.37
2018-12-20T13:09:09.695Z,83.90
2018-12-20T13:11:39.786Z,84.73
2018-12-20T13:14:09.627Z,84.80
2018-12-20T13:16:39.400Z,85.37
2018-12-20T13:19:09.236Z,85.30
2018-12-20T13:21:39.053Z,84.23
2018-12-20T13:24:08.872Z,83.80
2018-12-20T13:26:38.839Z,83.66
2018-12-20T13:29:08.617Z,83.74
2018-12-20T13:31:38.427Z,83.08
2018-12-20T13:34:08.199Z,83.09
2018-12-20T13:36:39.026Z,83.58
2018-12-20T13:39:10.415Z,82.30
2018-12-20T13:41:40.219Z,82.17
2018-12-20T13:44:10.430Z,82.49
2018-12-20T13:46:41.008Z,81.67
2018-12-20T13:49:11.108Z,83.33
2018-12-20T13:51:40.896Z,85.25
2018-12-20T13:54:10.693Z,86.60
2018-12-20T13:56:40.976Z,87.18
2018-12-20T13:59:11.236Z,86.24
2018-12-20T14:01:40.992Z,87.25
2018-12-20T14:04:10.842Z,87.52
2018-12-20T14:06:41.260Z,87.34
2018-12-20T14:09:11.174Z,88.09
2018-12-20T14:11:41.642Z,88.29
2018-12-20T14:14:11.432Z,87.52
2018-12-20T14:16:41.252Z,87.19
2018-12-20T14:19:11.037Z,86.84
2018-12-20T14:21:41.276Z,86.57
2018-12-20T14:24:11.080Z,86.77
2018-12-20T14:26:41.748Z,86.98
2018-12-20T14:29:11.778Z,86.39
2018-12-20T14:31:41.862Z,86.43
2018-12-20T14:34:11.605Z,86.83
2018-12-20T14:36:41.489Z,86.39
2018-12-20T14:39:11.951Z,86.15
2018-12-20T14:41:41.810Z,86.42
2018-12-20T14:44:11.880Z,87.07
2018-12-20T14:46:42.018Z,86.79
2018-12-20T14:49:11.780Z,86.54
2018-12-20T14:51:41.848Z,86.78
2018-12-20T14:54:11.682Z,87.36
2018-12-20T14:56:41.900Z,88.05
2018-12-20T14:59:11.684Z,87.80
2018-12-20T15:01:41.478Z,87.38
2018-12-20T15:04:11.650Z,85.61
2018-12-20T15:06:41.706Z,85.53
2018-12-20T15:09:11.760Z,85.39
2018-12-20T15:11:41.528Z,85.24
2018-12-20T15:14:11.616Z,84.30
2018-12-20T15:16:41.964Z,83.89
2018-12-20T15:19:12.098Z,84.04
2018-12-20T15:21:41.872Z,83.83
2018-12-20T15:24:11.980Z,83.78
2018-12-20T15:26:41.748Z,83.56
2018-12-20T15:29:11.509Z,83.04
2018-12-20T15:31:41.859Z,83.04
2018-12-20T15:34:11.733Z,82.95
2018-12-20T15:36:42.352Z,82.96
2018-12-20T15:39:12.370Z,82.26
2018-12-20T15:41:42.126Z,82.08
2018-12-20T15:44:11.953Z,82.17
2018-12-20T15:46:41.744Z,82.53
2018-12-20T15:49:12.162Z,82.30
2018-12-20T15:51:41.982Z,82.01
2018-12-20T15:54:11.802Z,82.39
2018-12-20T15:56:41.568Z,81.93
2018-12-20T15:59:11.682Z,82.37
2018-12-20T16:01:41.459Z,82.30
2018-12-20T16:04:11.230Z,82.33
2018-12-20T16:06:41.014Z,82.50
2018-12-20T16:09:11.278Z,82.58
2018-12-20T16:11:41.050Z,83.08
2018-12-20T16:14:10.814Z,83.00
2018-12-20T16:16:40.619Z,83.62
2018-12-20T16:19:10.803Z,83.57
2018-12-20T16:21:41.256Z,83.68
2018-12-20T16:24:11.405Z,83.70
2018-12-20T16:26:41.466Z,83.68
2018-12-20T16:29:11.589Z,83.90
2018-12-20T16:31:41.856Z,84.24
2018-12-20T16:34:12.061Z,83.69
2018-12-20T16:36:41.862Z,83.84
2018-12-20T16:39:11.641Z,84.54
2018-12-20T16:41:41.434Z,84.14
2018-12-20T16:44:11.664Z,84.55
2018-12-20T16:46:41.842Z,84.59
2018-12-20T16:49:13.726Z,84.35
2018-12-20T16:51:43.406Z,84.39
2018-12-20T16:54:13.460Z,84.02
2018-12-20T16:56:43.934Z,83.96
2018-12-20T16:59:13.758Z,83.94
2018-12-20T17:01:43.922Z,83.76
2018-12-20T17:04:14.383Z,83.40
2018-12-20T17:06:45.190Z,83.65
2018-12-20T17:09:15.259Z,83.78
2018-12-20T17:11:45.350Z,84.13
2018-12-20T17:14:15.416Z,84.36
2018-12-20T17:16:45.173Z,84.80
2018-12-20T17:19:21.849Z,85.07
2018-12-20T17:21:47.154Z,85.06
2018-12-20T17:24:17.492Z,85.57
2018-12-20T17:26:47.264Z,85.60
2018-12-20T17:29:17.184Z,86.00
2018-12-20T17:31:47.967Z,85.82
2018-12-20T17:34:17.731Z,86.49
2018-12-20T17:36:47.498Z,86.53
2018-12-20T17:39:17.336Z,86.42
2018-12-20T17:41:47.452Z,86.42
2018-12-20T17:44:17.690Z,86.87
2018-12-20T17:46:47.496Z,87.10
2018-12-20T17:49:17.600Z,87.04
2018-12-20T17:51:47.370Z,86.82
2018-12-20T17:54:18.386Z,87.40
2018-12-20T17:56:48.168Z,87.44
2018-12-20T17:59:17.974Z,87.09
2018-12-20T18:01:48.134Z,87.53
2018-12-20T18:04:17.923Z,87.58
2018-12-20T18:06:48.018Z,87.83
2018-12-20T18:09:18.700Z,87.86
2018-12-20T18:11:48.884Z,87.64
2018-12-20T18:14:18.957Z,87.36
2018-12-20T18:16:48.757Z,86.99
2018-12-20T18:19:19.279Z,87.14
2018-12-20T18:21:49.422Z,86.88
2018-12-20T18:24:20.259Z,87.22
2018-12-20T18:26:50.047Z,87.17
2018-12-20T18:29:20.175Z,87.16
2018-12-20T18:31:50.019Z,87.29
2018-12-20T18:34:19.802Z,87.29
2018-12-20T18:36:49.617Z,87.10
2018-12-20T18:39:19.406Z,87.34
2018-12-20T18:41:49.462Z,87.02
2018-12-20T18:44:19.526Z,87.14
2018-12-20T18:46:49.727Z,87.09
2018-12-20T18:49:19.609Z,87.20
2018-12-20T18:51:49.779Z,87.06
2018-12-20T18:54:19.548Z,86.32
2018-12-20T18:56:49.337Z,86.21
2018-12-20T18:59:19.879Z,86.09
2018-12-20T19:01:49.661Z,86.37
2018-12-20T19:04:20.175Z,86.02
2018-12-20T19:06:49.998Z,86.44
2018-12-20T19:09:19.991Z,86.22
2018-12-20T19:11:49.771Z,86.48
2018-12-20T19:14:20.062Z,86.38
2018-12-20T19:16:49.881Z,86.41
2018-12-20T19:19:19.673Z,86.59
2018-12-20T19:21:50.331Z,86.53
2018-12-20T19:24:20.229Z,86.67
2018-12-20T19:26:50.969Z,86.79
2018-12-20T19:29:21.380Z,86.92
2018-12-20T19:31:51.515Z,87.11
2018-12-20T19:34:21.379Z,86.89
2018-12-20T19:36:51.265Z,86.99
2018-12-20T19:39:21.341Z,87.03
2018-12-20T19:41:51.141Z,87.37
2018-12-20T19:44:20.931Z,87.39
2018-12-20T19:46:50.797Z,87.81
2018-12-20T19:49:20.842Z,88.12
2018-12-20T19:51:50.688Z,88.15
2018-12-20T19:54:20.956Z,88.24
2018-12-20T19:56:51.107Z,88.48
2018-12-20T19:59:21.350Z,88.29
2018-12-20T20:01:51.140Z,87.89
2018-12-20T20:04:21.008Z,87.88
2018-12-20T20:06:50.892Z,87.47
2018-12-20T20:09:20.870Z,88.01
2018-12-20T20:11:50.680Z,87.88
2018-12-20T20:14:20.527Z,87.92
2018-12-20T20:16:51.141Z,87.73
2018-12-20T20:19:21.277Z,87.28
2018-12-20T20:21:51.652Z,87.83
2018-12-20T20:24:21.503Z,88.06
2018-12-20T20:26:51.363Z,87.64
2018-12-20T20:29:21.137Z,87.81
2018-12-20T20:31:51.067Z,87.17
2018-12-20T20:34:21.373Z,87.30
2018-12-20T20:36:51.213Z,86.95
2018-12-20T20:39:21.107Z,86.98
2018-12-20T20:41:50.940Z,86.46
2018-12-20T20:44:20.802Z,86.65
2018-12-20T20:46:50.609Z,86.56
2018-12-20T20:49:20.454Z,86.31
2018-12-20T20:51:50.393Z,86.51
2018-12-20T20:54:20.243Z,86.36
2018-12-20T20:56:50.229Z,86.02
2018-12-20T20:59:20.079Z,86.04
2018-12-20T21:01:49.952Z,85.99
2018-12-20T21:04:20.939Z,86.08
2018-12-20T21:06:52.051Z,86.27
2018-12-20T21:09:21.917Z,86.03
2018-12-20T21:11:51.768Z,86.33
2018-12-20T21:14:21.540Z,86.35
2018-12-20T21:16:51.353Z,86.33
2018-12-20T21:19:21.224Z,86.17
2018-12-20T21:21:51.049Z,85.87
2018-12-20T21:24:20.863Z,86.41
2018-12-20T21:26:50.973Z,86.63
2018-12-20T21:29:21.253Z,86.50
2018-12-20T21:31:51.849Z,86.42
2018-12-20T21:34:21.724Z,86.39
2018-12-20T21:36:52.011Z,86.50
2018-12-20T21:39:22.420Z,86.77
2018-12-20T21:41:52.934Z,86.53
2018-12-20T21:44:22.946Z,86.96
2018-12-20T21:46:52.817Z,86.89
2018-12-20T21:49:22.726Z,87.22
2018-12-20T21:51:53.020Z,86.88
2018-12-20T21:54:22.948Z,87.67
2018-12-20T21:56:52.726Z,87.66
2018-12-20T21:59:23.300Z,88.09
2018-12-20T22:01:53.152Z,88.28
2018-12-20T22:04:23.066Z,88.35
2018-12-20T22:06:52.983Z,88.55
2018-12-20T22:09:22.896Z,88.25
2018-12-20T22:11:52.773Z,88.63
2018-12-20T22:14:22.566Z,88.72
2018-12-20T22:16:52.318Z,88.71
2018-12-20T22:19:24.024Z,88.21
2018-12-20T22:21:54.192Z,88.21
2018-12-20T22:24:24.025Z,87.97
2018-12-20T22:26:53.931Z,87.72
2018-12-20T22:29:23.960Z,87.86
2018-12-20T22:31:53.793Z,87.68
2018-12-20T22:34:23.598Z,87.64
2018-12-20T22:36:53.492Z,87.60
2018-12-20T22:39:23.554Z,87.39
2018-12-20T22:41:53.322Z,87.14
2018-12-20T22:44:23.268Z,87.23
2018-12-20T22:46:53.599Z,87.94
2018-12-20T22:49:23.446Z,87.26
2018-12-20T22:51:53.786Z,87.21
2018-12-20T22:54:23.623Z,87.27
2018-12-20T22:56:53.526Z,87.49
2018-12-20T22:59:23.975Z,87.62
2018-12-20T23:01:53.773Z,87.23
2018-12-20T23:04:24.493Z,87.21
2018-12-20T23:06:54.300Z,86.80
2018-12-20T23:09:24.145Z,87.02
2018-12-20T23:11:53.880Z,87.05
2018-12-20T23:14:23.648Z,87.63
2018-12-20T23:16:54.061Z,87.58
2018-12-20T23:19:24.072Z,87.41
2018-12-20T23:21:53.948Z,87.71
2018-12-20T23:24:25.132Z,87.81
2018-12-20T23:26:55.369Z,87.99
2018-12-20T23:29:25.249Z,87.74
2018-12-20T23:31:56.103Z,87.90
2018-12-20T23:34:26.067Z,88.00
2018-12-20T23:36:55.932Z,88.19
2018-12-20T23:39:25.804Z,88.25
2018-12-20T23:41:55.573Z,88.32
2018-12-20T23:58:48.386Z,89.37
